createdAt,value
2018-08-06T00:00:19.655Z,0.00
2018-08-06T00:01:40.701Z,0.00
2018-08-06T00:02:19.711Z,0.00
2018-08-06T00:03:19.735Z,0.00
2018-08-06T00:04:19.758Z,0.00
2018-08-06T00:05:19.783Z,0.00
2018-08-06T00:06:19.806Z,0.00
2018-08-06T00:07:40.851Z,0.00
2018-08-06T00:08:19.861Z,0.00
2018-08-06T00:09:19.884Z,0.00
2018-08-06T00:10:19.910Z,0.00
2018-08-06T00:11:19.934Z,0.00
2018-08-06T00:12:19.960Z,0.00
2018-08-06T00:13:41.006Z,0.00
2018-08-06T00:14:20.015Z,0.00
2018-08-06T00:15:20.037Z,0.00
2018-08-06T00:16:20.063Z,0.00
2018-08-06T00:17:20.089Z,0.00
2018-08-06T00:18:20.112Z,0.00
2018-08-06T00:19:41.155Z,0.00
2018-08-06T00:20:20.177Z,0.00
2018-08-06T00:21:20.190Z,0.00
2018-08-06T00:22:20.213Z,0.00
2018-08-06T00:23:20.244Z,0.00
2018-08-06T00:24:20.265Z,0.00
2018-08-06T00:25:41.308Z,0.00
2018-08-06T00:26:20.317Z,0.00
2018-08-06T00:27:20.344Z,0.00
2018-08-06T00:28:20.367Z,0.00
2018-08-06T00:29:20.392Z,0.00
2018-08-06T00:30:20.418Z,0.00
2018-08-06T00:31:41.460Z,0.00
2018-08-06T00:32:20.469Z,0.00
2018-08-06T00:33:20.498Z,0.00
2018-08-06T00:34:20.517Z,0.00
2018-08-06T00:35:20.553Z,0.00
2018-08-06T00:36:20.573Z,0.00
2018-08-06T00:37:41.620Z,0.00
2018-08-06T00:38:20.622Z,0.00
2018-08-06T00:39:20.648Z,0.00
2018-08-06T00:40:20.675Z,0.00
2018-08-06T00:41:20.696Z,0.00
2018-08-06T00:42:20.722Z,0.00
2018-08-06T00:43:41.766Z,0.00
2018-08-06T00:44:20.776Z,0.00
2018-08-06T00:45:20.836Z,0.00
2018-08-06T00:46:20.822Z,0.00
2018-08-06T00:47:20.853Z,0.00
2018-08-06T00:48:20.876Z,0.00
2018-08-06T00:49:41.916Z,0.00
2018-08-06T00:50:20.923Z,0.00
2018-08-06T00:51:20.949Z,0.00
2018-08-06T00:52:20.974Z,0.00
2018-08-06T00:53:20.998Z,0.00
2018-08-06T00:54:21.028Z,0.00
2018-08-06T00:55:42.068Z,0.00
2018-08-06T00:56:21.082Z,0.00
2018-08-06T00:57:21.101Z,0.00
2018-08-06T00:58:21.130Z,0.00
2018-08-06T00:59:21.150Z,0.00
2018-08-06T01:00:21.176Z,0.00
2018-08-06T01:01:42.220Z,0.00
2018-08-06T01:02:21.243Z,0.00
2018-08-06T01:03:21.253Z,0.00
2018-08-06T01:04:21.279Z,0.00
2018-08-06T01:05:21.308Z,0.00
2018-08-06T01:06:21.331Z,0.00
2018-08-06T01:07:42.385Z,0.00
2018-08-06T01:08:21.379Z,0.00
2018-08-06T01:09:21.405Z,0.00
2018-08-06T01:10:21.430Z,0.00
2018-08-06T01:11:21.457Z,0.00
2018-08-06T01:12:21.483Z,0.00
2018-08-06T01:13:42.536Z,0.00
2018-08-06T01:14:21.531Z,0.00
2018-08-06T01:15:21.558Z,0.00
2018-08-06T01:16:21.590Z,0.00
2018-08-06T01:17:21.606Z,0.00
2018-08-06T01:18:21.634Z,0.00
2018-08-06T01:19:42.676Z,0.00
2018-08-06T01:20:21.688Z,0.00
2018-08-06T01:21:21.708Z,0.00
2018-08-06T01:22:21.732Z,0.00
2018-08-06T01:23:21.763Z,0.00
2018-08-06T01:24:21.788Z,0.00
2018-08-06T01:25:42.829Z,0.00
2018-08-06T01:26:21.833Z,0.00
2018-08-06T01:27:21.865Z,0.00
2018-08-06T01:28:21.884Z,0.00
2018-08-06T01:29:21.915Z,0.00
2018-08-06T01:30:21.937Z,0.00
2018-08-06T01:31:42.977Z,0.00
2018-08-06T01:32:21.986Z,0.00
2018-08-06T01:33:22.018Z,0.00
2018-08-06T01:34:22.037Z,0.00
2018-08-06T01:35:22.061Z,0.00
2018-08-06T01:36:22.087Z,0.00
2018-08-06T01:37:43.130Z,0.00
2018-08-06T01:38:22.137Z,0.00
2018-08-06T01:39:22.163Z,0.00
2018-08-06T01:40:22.187Z,0.00
2018-08-06T01:41:22.214Z,0.00
2018-08-06T01:42:22.238Z,0.00
2018-08-06T01:43:43.281Z,0.00
2018-08-06T01:44:22.298Z,0.00
2018-08-06T01:45:22.313Z,0.00
2018-08-06T01:46:22.345Z,0.00
2018-08-06T01:47:22.365Z,0.00
2018-08-06T01:48:22.390Z,0.00
2018-08-06T01:49:43.435Z,0.00
2018-08-06T01:50:22.439Z,0.00
2018-08-06T01:51:22.465Z,0.00
2018-08-06T01:52:22.494Z,0.00
2018-08-06T01:53:22.521Z,0.00
2018-08-06T01:54:22.540Z,0.00
2018-08-06T01:55:43.584Z,0.00
2018-08-06T01:56:22.595Z,0.00
2018-08-06T01:57:22.656Z,0.00
2018-08-06T01:58:22.646Z,0.00
2018-08-06T01:59:22.672Z,0.00
2018-08-06T02:00:22.691Z,0.00
2018-08-06T02:01:43.736Z,0.00
2018-08-06T02:02:22.744Z,0.00
2018-08-06T02:03:22.768Z,0.00
2018-08-06T02:04:22.797Z,0.00
2018-08-06T02:05:22.817Z,0.00
2018-08-06T02:06:22.843Z,0.00
2018-08-06T02:07:43.887Z,0.00
2018-08-06T02:08:22.893Z,0.00
2018-08-06T02:09:22.919Z,0.00
2018-08-06T02:10:22.943Z,0.00
2018-08-06T02:11:22.968Z,0.00
2018-08-06T02:12:22.993Z,0.00
2018-08-06T02:13:44.042Z,0.00
2018-08-06T02:14:23.045Z,0.00
2018-08-06T02:15:23.075Z,0.00
2018-08-06T02:16:23.099Z,0.00
2018-08-06T02:17:23.126Z,0.00
2018-08-06T02:18:23.143Z,0.00
2018-08-06T02:19:44.189Z,0.00
2018-08-06T02:20:23.199Z,0.00
2018-08-06T02:21:23.224Z,0.00
2018-08-06T02:22:23.244Z,0.00
2018-08-06T02:23:23.280Z,0.00
2018-08-06T02:24:23.296Z,0.00
2018-08-06T02:25:44.342Z,0.00
2018-08-06T02:26:23.350Z,0.00
2018-08-06T02:27:23.374Z,0.00
2018-08-06T02:28:23.397Z,0.00
2018-08-06T02:29:23.421Z,0.00
2018-08-06T02:30:23.447Z,0.00
2018-08-06T02:31:44.489Z,0.00
2018-08-06T02:32:23.497Z,0.00
2018-08-06T02:33:23.523Z,0.00
2018-08-06T02:34:23.547Z,0.00
2018-08-06T02:35:23.574Z,0.00
2018-08-06T02:36:23.597Z,0.00
2018-08-06T02:37:44.640Z,0.00
2018-08-06T02:38:23.647Z,0.00
2018-08-06T02:39:23.677Z,0.00
2018-08-06T02:40:23.698Z,0.00
2018-08-06T02:41:23.726Z,0.00
2018-08-06T02:42:23.754Z,0.00
2018-08-06T02:43:44.791Z,0.00
2018-08-06T02:44:23.800Z,0.00
2018-08-06T02:45:23.826Z,0.00
2018-08-06T02:46:23.848Z,0.00
2018-08-06T02:47:23.884Z,0.00
2018-08-06T02:48:23.909Z,0.00
2018-08-06T02:49:44.945Z,0.00
2018-08-06T02:50:23.949Z,0.00
2018-08-06T02:51:23.974Z,0.00
2018-08-06T02:52:23.999Z,0.00
2018-08-06T02:53:24.025Z,0.00
2018-08-06T02:54:24.048Z,0.00
2018-08-06T02:55:45.099Z,0.00
2018-08-06T02:56:24.104Z,0.00
2018-08-06T02:57:24.125Z,0.00
2018-08-06T02:58:24.150Z,0.00
2018-08-06T02:59:24.176Z,0.00
2018-08-06T03:00:24.201Z,0.00
2018-08-06T03:01:45.243Z,0.00
2018-08-06T03:02:24.253Z,0.00
2018-08-06T03:03:24.276Z,0.00
2018-08-06T03:04:24.304Z,0.00
2018-08-06T03:05:24.328Z,0.00
2018-08-06T03:06:24.354Z,0.00
2018-08-06T03:07:45.393Z,0.00
2018-08-06T03:08:24.401Z,0.00
2018-08-06T03:09:24.427Z,4.00
2018-08-06T03:10:24.451Z,4.00
2018-08-06T03:11:24.477Z,0.00
2018-08-06T03:12:24.503Z,0.00
2018-08-06T03:13:45.544Z,4.00
2018-08-06T03:14:24.551Z,4.00
2018-08-06T03:15:24.576Z,0.00
2018-08-06T03:16:24.602Z,4.00
2018-08-06T03:17:24.627Z,4.00
2018-08-06T03:18:24.652Z,4.00
2018-08-06T03:19:45.694Z,8.00
2018-08-06T03:20:24.702Z,4.00
2018-08-06T03:21:24.728Z,8.00
2018-08-06T03:22:24.752Z,8.00
2018-08-06T03:23:24.777Z,8.00
2018-08-06T03:24:24.802Z,12.00
2018-08-06T03:25:45.844Z,12.00
2018-08-06T03:26:24.852Z,12.00
2018-08-06T03:27:24.884Z,12.00
2018-08-06T03:28:24.903Z,16.00
2018-08-06T03:29:24.936Z,20.00
2018-08-06T03:30:24.954Z,20.00
2018-08-06T03:31:45.993Z,24.00
2018-08-06T03:32:25.001Z,24.00
2018-08-06T03:33:25.027Z,28.00
2018-08-06T03:34:25.051Z,32.00
2018-08-06T03:35:25.096Z,36.00
2018-08-06T03:36:25.101Z,40.00
2018-08-06T03:37:46.157Z,40.00
2018-08-06T03:38:25.150Z,44.00
2018-08-06T03:39:25.184Z,52.00
2018-08-06T03:40:25.202Z,60.00
2018-08-06T03:41:25.225Z,60.00
2018-08-06T03:42:25.251Z,68.00
2018-08-06T03:43:46.292Z,76.00
2018-08-06T03:44:25.300Z,80.00
2018-08-06T03:45:25.326Z,88.00
2018-08-06T03:46:25.350Z,92.00
2018-08-06T03:47:25.375Z,104.00
2018-08-06T03:48:25.400Z,108.00
2018-08-06T03:49:46.441Z,120.00
2018-08-06T03:50:25.448Z,128.00
2018-08-06T03:51:25.496Z,136.00
2018-08-06T03:52:25.502Z,148.00
2018-08-06T03:53:25.524Z,156.00
2018-08-06T03:54:25.546Z,168.00
2018-08-06T03:55:46.594Z,180.00
2018-08-06T03:56:25.599Z,192.00
2018-08-06T03:57:25.623Z,204.00
2018-08-06T03:58:25.648Z,216.00
2018-08-06T03:59:25.677Z,232.00
2018-08-06T04:00:25.698Z,248.00
2018-08-06T04:01:46.739Z,264.00
2018-08-06T04:02:25.746Z,284.00
2018-08-06T04:03:25.771Z,308.00
2018-08-06T04:04:25.799Z,332.00
2018-08-06T04:05:25.821Z,360.00
2018-08-06T04:06:25.847Z,388.00
2018-08-06T04:07:46.889Z,416.00
2018-08-06T04:08:25.895Z,444.00
2018-08-06T04:09:25.926Z,472.00
2018-08-06T04:10:25.948Z,512.00
2018-08-06T04:11:25.970Z,556.00
2018-08-06T04:12:25.996Z,604.00
2018-08-06T04:13:47.036Z,656.00
2018-08-06T04:14:26.046Z,712.00
2018-08-06T04:15:26.069Z,780.00
2018-08-06T04:16:26.096Z,868.00
2018-08-06T04:17:26.119Z,992.00
2018-08-06T04:18:26.145Z,1160.00
2018-08-06T04:19:47.194Z,1460.00
2018-08-06T04:20:26.194Z,1944.00
2018-08-06T04:21:26.218Z,2440.00
2018-08-06T04:22:26.243Z,2760.00
2018-08-06T04:23:26.271Z,2876.00
2018-08-06T04:24:26.295Z,2984.00
2018-08-06T04:25:47.336Z,3168.00
2018-08-06T04:26:26.342Z,3348.00
2018-08-06T04:27:26.370Z,3532.00
2018-08-06T04:28:26.395Z,3692.00
2018-08-06T04:29:26.419Z,3892.00
2018-08-06T04:30:26.442Z,4088.00
2018-08-06T04:31:47.486Z,4260.00
2018-08-06T04:32:26.497Z,4400.00
2018-08-06T04:33:26.521Z,4592.00
2018-08-06T04:34:26.546Z,4808.00
2018-08-06T04:35:26.573Z,5008.00
2018-08-06T04:36:26.598Z,5172.00
2018-08-06T04:37:47.642Z,5324.00
2018-08-06T04:38:26.718Z,5452.00
2018-08-06T04:39:26.677Z,5556.00
2018-08-06T04:40:26.701Z,5688.00
2018-08-06T04:41:26.732Z,5836.00
2018-08-06T04:42:26.752Z,5976.00
2018-08-06T04:43:47.796Z,6112.00
2018-08-06T04:44:26.805Z,6248.00
2018-08-06T04:45:26.832Z,6388.00
2018-08-06T04:46:26.858Z,6536.00
2018-08-06T04:47:26.885Z,6684.00
2018-08-06T04:48:26.912Z,6848.00
2018-08-06T04:49:47.963Z,7024.00
2018-08-06T04:50:26.968Z,7172.00
2018-08-06T04:51:26.992Z,7252.00
2018-08-06T04:52:27.022Z,7212.00
2018-08-06T04:53:27.047Z,7244.00
2018-08-06T04:54:27.072Z,7272.00
2018-08-06T04:55:48.118Z,7252.00
2018-08-06T04:56:27.128Z,7176.00
2018-08-06T04:57:27.158Z,7052.00
2018-08-06T04:58:27.181Z,6904.00
2018-08-06T04:59:27.222Z,6812.00
2018-08-06T05:00:27.239Z,6704.00
2018-08-06T05:01:48.283Z,6536.00
2018-08-06T05:02:27.294Z,6368.00
2018-08-06T05:03:27.325Z,6192.00
2018-08-06T05:04:27.355Z,5992.00
2018-08-06T05:05:27.378Z,5892.00
2018-08-06T05:06:27.405Z,5848.00
2018-08-06T05:07:48.452Z,5816.00
2018-08-06T05:08:27.463Z,5736.00
2018-08-06T05:09:27.492Z,5652.00
2018-08-06T05:10:27.518Z,5572.00
2018-08-06T05:11:27.543Z,5460.00
2018-08-06T05:12:27.573Z,5512.00
2018-08-06T05:13:48.624Z,5516.00
2018-08-06T05:14:27.629Z,5508.00
2018-08-06T05:15:27.669Z,5564.00
2018-08-06T05:16:27.686Z,5592.00
2018-08-06T05:17:27.713Z,5628.00
2018-08-06T05:18:27.741Z,5672.00
2018-08-06T05:19:48.788Z,5764.00
2018-08-06T05:20:27.797Z,5820.00
2018-08-06T05:21:27.825Z,5920.00
2018-08-06T05:22:27.853Z,5996.00
2018-08-06T05:23:27.881Z,6092.00
2018-08-06T05:24:27.909Z,6188.00
2018-08-06T05:25:48.960Z,6288.00
2018-08-06T05:26:27.966Z,6448.00
2018-08-06T05:27:27.998Z,6612.00
2018-08-06T05:28:28.022Z,6800.00
2018-08-06T05:29:28.051Z,7148.00
2018-08-06T05:30:28.078Z,8996.00
2018-08-06T05:31:49.125Z,13100.00
2018-08-06T05:32:28.134Z,17808.00
2018-08-06T05:33:28.167Z,21728.00
2018-08-06T05:34:28.193Z,24736.00
2018-08-06T05:35:28.220Z,26176.00
2018-08-06T05:36:28.248Z,27552.00
2018-08-06T05:37:49.294Z,27488.00
2018-08-06T05:38:28.304Z,27584.00
2018-08-06T05:39:28.335Z,28032.00
2018-08-06T05:40:28.371Z,28160.00
2018-08-06T05:41:28.393Z,29024.00
2018-08-06T05:42:28.419Z,29888.00
2018-08-06T05:43:49.467Z,29248.00
2018-08-06T05:44:28.476Z,28640.00
2018-08-06T05:45:28.511Z,29536.00
2018-08-06T05:46:28.538Z,29760.00
2018-08-06T05:47:28.566Z,29920.00
2018-08-06T05:48:28.595Z,31072.00
2018-08-06T05:49:49.644Z,30848.00
2018-08-06T05:50:28.658Z,28864.00
2018-08-06T05:51:28.685Z,26304.00
2018-08-06T05:52:28.715Z,22464.00
2018-08-06T05:53:28.751Z,17856.00
2018-08-06T05:54:28.777Z,15136.00
2018-08-06T05:55:49.828Z,14312.00
2018-08-06T05:56:28.839Z,14020.00
2018-08-06T05:57:28.877Z,13836.00
2018-08-06T05:58:28.897Z,13760.00
2018-08-06T05:59:28.928Z,13776.00
2018-08-06T06:00:28.960Z,13808.00
2018-08-06T06:01:50.010Z,13792.00
2018-08-06T06:02:29.024Z,13632.00
2018-08-06T06:03:29.052Z,13488.00
2018-08-06T06:04:29.084Z,13404.00
2018-08-06T06:05:29.117Z,13308.00
2018-08-06T06:06:29.148Z,13244.00
2018-08-06T06:07:50.200Z,13072.00
2018-08-06T06:08:29.213Z,12900.00
2018-08-06T06:09:29.242Z,12656.00
2018-08-06T06:10:29.273Z,12312.00
2018-08-06T06:11:29.304Z,11824.00
2018-08-06T06:12:29.401Z,11052.00
2018-08-06T06:13:50.393Z,9916.00
2018-08-06T06:14:29.400Z,8856.00
2018-08-06T06:15:29.439Z,8260.00
2018-08-06T06:16:29.467Z,7560.00
2018-08-06T06:17:29.495Z,7040.00
2018-08-06T06:18:29.539Z,7236.00
2018-08-06T06:19:50.579Z,7948.00
2018-08-06T06:20:29.596Z,8728.00
2018-08-06T06:21:29.623Z,9256.00
2018-08-06T06:22:29.653Z,9980.00
2018-08-06T06:23:29.688Z,10460.00
2018-08-06T06:24:29.718Z,10580.00
2018-08-06T06:25:50.805Z,10468.00
2018-08-06T06:26:29.780Z,10148.00
2018-08-06T06:27:29.812Z,9948.00
2018-08-06T06:28:29.870Z,9676.00
2018-08-06T06:29:29.880Z,9040.00
2018-08-06T06:30:29.906Z,8268.00
2018-08-06T06:31:50.958Z,7156.00
2018-08-06T06:32:29.970Z,6236.00
2018-08-06T06:33:30.002Z,5812.00
2018-08-06T06:34:30.101Z,5224.00
2018-08-06T06:35:30.072Z,4268.00
2018-08-06T06:36:30.096Z,3432.00
2018-08-06T06:37:51.150Z,3060.00
2018-08-06T06:38:30.158Z,2888.00
2018-08-06T06:39:30.191Z,2808.00
2018-08-06T06:40:30.222Z,2748.00
2018-08-06T06:41:30.253Z,2700.00
2018-08-06T06:42:30.285Z,2652.00
2018-08-06T06:43:51.344Z,2612.00
2018-08-06T06:44:30.345Z,2572.00
2018-08-06T06:45:30.381Z,2532.00
2018-08-06T06:46:30.408Z,2512.00
2018-08-06T06:47:30.438Z,2476.00
2018-08-06T06:48:30.468Z,2456.00
2018-08-06T06:49:51.522Z,2428.00
2018-08-06T06:50:30.530Z,2396.00
2018-08-06T06:51:30.569Z,2372.00
2018-08-06T06:52:30.589Z,2348.00
2018-08-06T06:53:30.619Z,2328.00
2018-08-06T06:54:30.728Z,2304.00
2018-08-06T06:55:51.698Z,2280.00
2018-08-06T06:56:30.709Z,2256.00
2018-08-06T06:57:30.744Z,2232.00
2018-08-06T06:58:30.769Z,2212.00
2018-08-06T06:59:30.821Z,2200.00
2018-08-06T07:00:30.830Z,2172.00
2018-08-06T07:01:51.879Z,2152.00
2018-08-06T07:02:30.885Z,2140.00
2018-08-06T07:03:30.918Z,2124.00
2018-08-06T07:04:30.946Z,2108.00
2018-08-06T07:05:30.976Z,2088.00
2018-08-06T07:06:31.083Z,2068.00
2018-08-06T07:07:52.061Z,2048.00
2018-08-06T07:08:31.064Z,2040.00
2018-08-06T07:09:31.093Z,2024.00
2018-08-06T07:10:31.124Z,2012.00
2018-08-06T07:11:31.154Z,1992.00
2018-08-06T07:12:31.180Z,1976.00
2018-08-06T07:13:52.271Z,1964.00
2018-08-06T07:14:31.239Z,1960.00
2018-08-06T07:15:31.268Z,1944.00
2018-08-06T07:16:31.296Z,1936.00
2018-08-06T07:17:31.327Z,1924.00
2018-08-06T07:18:31.361Z,1916.00
2018-08-06T07:19:52.402Z,1904.00
2018-08-06T07:20:31.411Z,1892.00
2018-08-06T07:21:31.451Z,1888.00
2018-08-06T07:22:31.472Z,1884.00
2018-08-06T07:23:31.497Z,1868.00
2018-08-06T07:24:31.530Z,1856.00
2018-08-06T07:25:52.597Z,1840.00
2018-08-06T07:26:31.586Z,1840.00
2018-08-06T07:27:31.612Z,1840.00
2018-08-06T07:28:31.645Z,1828.00
2018-08-06T07:29:31.669Z,1828.00
2018-08-06T07:30:31.698Z,1820.00
2018-08-06T07:31:52.747Z,1816.00
2018-08-06T07:32:31.759Z,1816.00
2018-08-06T07:33:31.784Z,1804.00
2018-08-06T07:34:31.817Z,1800.00
2018-08-06T07:35:31.839Z,1792.00
2018-08-06T07:36:31.873Z,1788.00
2018-08-06T07:37:52.915Z,1776.00
2018-08-06T07:38:31.923Z,1768.00
2018-08-06T07:39:31.954Z,1752.00
2018-08-06T07:40:31.984Z,1744.00
2018-08-06T07:41:32.009Z,1744.00
2018-08-06T07:42:32.036Z,1736.00
2018-08-06T07:43:53.088Z,1728.00
2018-08-06T07:44:32.098Z,1728.00
2018-08-06T07:45:32.121Z,1724.00
2018-08-06T07:46:32.158Z,1720.00
2018-08-06T07:47:32.177Z,1716.00
2018-08-06T07:48:32.215Z,1696.00
2018-08-06T07:49:53.320Z,1700.00
2018-08-06T07:50:32.264Z,1692.00
2018-08-06T07:51:32.291Z,1688.00
2018-08-06T07:52:32.318Z,1688.00
2018-08-06T07:53:32.350Z,1684.00
2018-08-06T07:54:32.375Z,1676.00
2018-08-06T07:55:53.425Z,1672.00
2018-08-06T07:56:32.431Z,1668.00
2018-08-06T07:57:32.458Z,1656.00
2018-08-06T07:58:32.487Z,1652.00
2018-08-06T07:59:32.514Z,1648.00
2018-08-06T08:00:32.547Z,1640.00
2018-08-06T08:01:53.596Z,1628.00
2018-08-06T08:02:32.597Z,1620.00
2018-08-06T08:03:32.624Z,1616.00
2018-08-06T08:04:32.659Z,1604.00
2018-08-06T08:05:32.685Z,1600.00
2018-08-06T08:06:32.896Z,1548.00
2018-08-06T08:07:53.765Z,1552.00
2018-08-06T08:08:32.766Z,1552.00
2018-08-06T08:09:32.797Z,1548.00
2018-08-06T08:10:32.821Z,1540.00
2018-08-06T08:11:32.847Z,1532.00
2018-08-06T08:12:32.879Z,1532.00
2018-08-06T08:13:53.922Z,1524.00
2018-08-06T08:14:32.935Z,1516.00
2018-08-06T08:15:32.958Z,1512.00
2018-08-06T08:16:32.988Z,1504.00
2018-08-06T08:17:33.016Z,1492.00
2018-08-06T08:18:33.043Z,1492.00
2018-08-06T08:19:54.153Z,1484.00
2018-08-06T08:20:33.108Z,1484.00
2018-08-06T08:21:33.126Z,1480.00
2018-08-06T08:22:33.153Z,1480.00
2018-08-06T08:23:33.180Z,1472.00
2018-08-06T08:24:33.213Z,1476.00
2018-08-06T08:25:54.255Z,1464.00
2018-08-06T08:26:33.271Z,1460.00
2018-08-06T08:27:33.292Z,1460.00
2018-08-06T08:28:33.328Z,1456.00
2018-08-06T08:29:33.347Z,1452.00
2018-08-06T08:30:33.376Z,1448.00
2018-08-06T08:31:54.419Z,1444.00
2018-08-06T08:32:33.430Z,1428.00
2018-08-06T08:33:33.461Z,1432.00
2018-08-06T08:34:33.534Z,1424.00
2018-08-06T08:35:33.512Z,1416.00
2018-08-06T08:36:33.540Z,1416.00
2018-08-06T08:37:54.586Z,1408.00
2018-08-06T08:38:33.594Z,1404.00
2018-08-06T08:39:33.721Z,1396.00
2018-08-06T08:40:33.648Z,1392.00
2018-08-06T08:41:33.675Z,1384.00
2018-08-06T08:42:33.705Z,1380.00
2018-08-06T08:43:54.755Z,1376.00
2018-08-06T08:44:33.762Z,1368.00
2018-08-06T08:45:33.836Z,1364.00
2018-08-06T08:46:33.814Z,1364.00
2018-08-06T08:47:33.843Z,1364.00
2018-08-06T08:48:33.872Z,1364.00
2018-08-06T08:49:54.917Z,1364.00
2018-08-06T08:50:33.926Z,1360.00
2018-08-06T08:51:33.955Z,1360.00
2018-08-06T08:52:34.037Z,1356.00
2018-08-06T08:53:34.026Z,1360.00
2018-08-06T08:54:34.035Z,1360.00
2018-08-06T08:55:55.081Z,1356.00
2018-08-06T08:56:34.091Z,1368.00
2018-08-06T08:57:34.120Z,1368.00
2018-08-06T08:58:34.221Z,1368.00
2018-08-06T08:59:34.181Z,1368.00
2018-08-06T09:00:34.202Z,1364.00
2018-08-06T09:01:55.250Z,1364.00
2018-08-06T09:02:34.254Z,1368.00
2018-08-06T09:03:34.284Z,1364.00
2018-08-06T09:04:34.313Z,1360.00
2018-08-06T09:05:34.341Z,1360.00
2018-08-06T09:06:34.365Z,1356.00
2018-08-06T09:07:55.414Z,1352.00
2018-08-06T09:08:34.420Z,1348.00
2018-08-06T09:09:34.454Z,1348.00
2018-08-06T09:10:34.475Z,1344.00
2018-08-06T09:11:34.509Z,1340.00
2018-08-06T09:12:34.529Z,1340.00
2018-08-06T09:13:55.621Z,1332.00
2018-08-06T09:14:34.592Z,1328.00
2018-08-06T09:15:34.613Z,1324.00
2018-08-06T09:16:34.680Z,1320.00
2018-08-06T09:17:34.684Z,1320.00
2018-08-06T09:18:34.696Z,1316.00
2018-08-06T09:19:55.739Z,1312.00
2018-08-06T09:20:34.752Z,1308.00
2018-08-06T09:21:34.777Z,1308.00
2018-08-06T09:22:34.803Z,1304.00
2018-08-06T09:23:34.831Z,1304.00
2018-08-06T09:24:34.858Z,1300.00
2018-08-06T09:25:55.903Z,1296.00
2018-08-06T09:26:34.913Z,1296.00
2018-08-06T09:27:34.939Z,1292.00
2018-08-06T09:28:34.966Z,1288.00
2018-08-06T09:29:34.994Z,1288.00
2018-08-06T09:30:35.021Z,1288.00
2018-08-06T09:31:56.078Z,1288.00
2018-08-06T09:32:35.075Z,1284.00
2018-08-06T09:33:35.105Z,1284.00
2018-08-06T09:34:35.131Z,1280.00
2018-08-06T09:35:35.160Z,1280.00
2018-08-06T09:36:35.186Z,1280.00
2018-08-06T09:37:56.229Z,1276.00
2018-08-06T09:38:35.237Z,1272.00
2018-08-06T09:39:35.267Z,1272.00
2018-08-06T09:40:35.311Z,1268.00
2018-08-06T09:41:35.322Z,1264.00
2018-08-06T09:42:35.354Z,1256.00
2018-08-06T09:43:56.390Z,1252.00
2018-08-06T09:44:35.403Z,1248.00
2018-08-06T09:45:35.432Z,1240.00
2018-08-06T09:46:35.454Z,1240.00
2018-08-06T09:47:35.483Z,1240.00
2018-08-06T09:48:35.522Z,1236.00
2018-08-06T09:49:56.559Z,1232.00
2018-08-06T09:50:35.566Z,1224.00
2018-08-06T09:51:35.607Z,1228.00
2018-08-06T09:52:35.618Z,1224.00
2018-08-06T09:53:35.650Z,1224.00
2018-08-06T09:54:35.672Z,1216.00
2018-08-06T09:55:56.716Z,1212.00
2018-08-06T09:56:35.746Z,1212.00
2018-08-06T09:57:35.754Z,1208.00
2018-08-06T09:58:35.782Z,1200.00
2018-08-06T09:59:35.806Z,1180.00
2018-08-06T10:00:35.841Z,1204.00
2018-08-06T10:01:56.878Z,1184.00
2018-08-06T10:02:35.887Z,1208.00
2018-08-06T10:03:35.916Z,1204.00
2018-08-06T10:04:35.942Z,1204.00
2018-08-06T10:05:35.986Z,1204.00
2018-08-06T10:06:36.108Z,1204.00
2018-08-06T10:07:57.043Z,1204.00
2018-08-06T10:08:36.051Z,1200.00
2018-08-06T10:09:36.086Z,1200.00
2018-08-06T10:10:36.104Z,1196.00
2018-08-06T10:11:36.134Z,1196.00
2018-08-06T10:12:36.159Z,1192.00
2018-08-06T10:13:57.203Z,1192.00
2018-08-06T10:14:36.212Z,1192.00
2018-08-06T10:15:36.272Z,1188.00
2018-08-06T10:16:36.282Z,1188.00
2018-08-06T10:17:36.293Z,1188.00
2018-08-06T10:18:36.339Z,1188.00
2018-08-06T10:19:57.369Z,1184.00
2018-08-06T10:20:36.380Z,1184.00
2018-08-06T10:21:36.402Z,1184.00
2018-08-06T10:22:36.428Z,1184.00
2018-08-06T10:23:36.456Z,1176.00
2018-08-06T10:24:36.547Z,1180.00
2018-08-06T10:25:57.538Z,1176.00
2018-08-06T10:26:36.536Z,1176.00
2018-08-06T10:27:36.564Z,1176.00
2018-08-06T10:28:36.589Z,1176.00
2018-08-06T10:29:36.637Z,1176.00
2018-08-06T10:30:36.672Z,1176.00
2018-08-06T10:31:57.745Z,1176.00
2018-08-06T10:32:36.700Z,1176.00
2018-08-06T10:33:36.728Z,1168.00
2018-08-06T10:34:36.809Z,1168.00
2018-08-06T10:35:36.778Z,1168.00
2018-08-06T10:36:36.807Z,1156.00
2018-08-06T10:37:57.848Z,1168.00
2018-08-06T10:38:36.858Z,1164.00
2018-08-06T10:39:36.884Z,1164.00
2018-08-06T10:40:36.921Z,1164.00
2018-08-06T10:41:36.940Z,1164.00
2018-08-06T10:42:36.967Z,1164.00
2018-08-06T10:43:58.009Z,1164.00
2018-08-06T10:44:37.017Z,1164.00
2018-08-06T10:45:37.049Z,1164.00
2018-08-06T10:46:37.073Z,1164.00
2018-08-06T10:47:37.098Z,1164.00
2018-08-06T10:48:37.146Z,1160.00
2018-08-06T10:49:58.180Z,1160.00
2018-08-06T10:50:37.185Z,1160.00
2018-08-06T10:51:37.220Z,1164.00
2018-08-06T10:52:38.198Z,1160.00
2018-08-06T10:53:37.274Z,1160.00
2018-08-06T10:54:37.289Z,1160.00
2018-08-06T10:55:58.356Z,1160.00
2018-08-06T10:56:37.344Z,1160.00
2018-08-06T10:57:37.379Z,1160.00
2018-08-06T10:58:37.404Z,1160.00
2018-08-06T10:59:37.456Z,1160.00
2018-08-06T11:00:37.458Z,1164.00
2018-08-06T11:01:58.517Z,1160.00
2018-08-06T11:02:37.503Z,1164.00
2018-08-06T11:03:37.533Z,1164.00
2018-08-06T11:04:37.556Z,1160.00
2018-08-06T11:05:37.583Z,1160.00
2018-08-06T11:06:37.747Z,1160.00
2018-08-06T11:07:58.655Z,1164.00
2018-08-06T11:08:37.664Z,1160.00
2018-08-06T11:09:37.691Z,1160.00
2018-08-06T11:10:37.714Z,1160.00
2018-08-06T11:11:37.745Z,1160.00
2018-08-06T11:12:37.777Z,1160.00
2018-08-06T11:13:58.867Z,1160.00
2018-08-06T11:14:37.903Z,1156.00
2018-08-06T11:15:37.852Z,1148.00
2018-08-06T11:16:37.878Z,1148.00
2018-08-06T11:17:37.921Z,1148.00
2018-08-06T11:18:37.952Z,1148.00
2018-08-06T11:19:58.976Z,1144.00
2018-08-06T11:20:37.998Z,1144.00
2018-08-06T11:21:38.014Z,1148.00
2018-08-06T11:22:38.041Z,1148.00
2018-08-06T11:23:38.072Z,1152.00
2018-08-06T11:24:38.092Z,1152.00
2018-08-06T11:25:59.154Z,1156.00
2018-08-06T11:26:38.145Z,1156.00
2018-08-06T11:27:38.175Z,1152.00
2018-08-06T11:28:38.225Z,1156.00
2018-08-06T11:29:38.275Z,1156.00
2018-08-06T11:30:38.255Z,1152.00
2018-08-06T11:31:59.414Z,1152.00
2018-08-06T11:32:38.306Z,1156.00
2018-08-06T11:33:38.334Z,1152.00
2018-08-06T11:34:38.359Z,1156.00
2018-08-06T11:35:38.391Z,1156.00
2018-08-06T11:36:38.415Z,1152.00
2018-08-06T11:37:59.458Z,1156.00
2018-08-06T11:38:38.464Z,1156.00
2018-08-06T11:39:38.524Z,1156.00
2018-08-06T11:40:38.523Z,1160.00
2018-08-06T11:41:38.548Z,1164.00
2018-08-06T11:42:38.574Z,1164.00
2018-08-06T11:43:59.631Z,1164.00
2018-08-06T11:44:38.631Z,1164.00
2018-08-06T11:45:38.657Z,1164.00
2018-08-06T11:46:38.693Z,1164.00
2018-08-06T11:47:38.710Z,1164.00
2018-08-06T11:48:38.741Z,1168.00
2018-08-06T11:49:59.782Z,1164.00
2018-08-06T11:50:38.789Z,1164.00
2018-08-06T11:51:38.814Z,1168.00
2018-08-06T11:52:38.848Z,1168.00
2018-08-06T11:53:38.877Z,1172.00
2018-08-06T11:54:38.902Z,1172.00
2018-08-06T11:55:59.939Z,1168.00
2018-08-06T11:56:39.004Z,1172.00
2018-08-06T11:57:38.981Z,1164.00
2018-08-06T11:58:39.001Z,1164.00
2018-08-06T11:59:39.036Z,1168.00
2018-08-06T12:00:39.060Z,1168.00
2018-08-06T12:02:00.183Z,1168.00
2018-08-06T12:02:39.109Z,1168.00
2018-08-06T12:03:39.137Z,1172.00
2018-08-06T12:04:39.168Z,1172.00
2018-08-06T12:05:39.210Z,1168.00
2018-08-06T12:06:39.218Z,1168.00
2018-08-06T12:08:00.261Z,1168.00
2018-08-06T12:08:39.343Z,1168.00
2018-08-06T12:09:39.298Z,1168.00
2018-08-06T12:10:39.324Z,1168.00
2018-08-06T12:11:39.350Z,1172.00
2018-08-06T12:12:39.378Z,1172.00
2018-08-06T12:14:00.425Z,1172.00
2018-08-06T12:14:39.437Z,1172.00
2018-08-06T12:15:39.460Z,1172.00
2018-08-06T12:16:39.485Z,1172.00
2018-08-06T12:17:39.513Z,1172.00
2018-08-06T12:18:39.540Z,1172.00
2018-08-06T12:20:00.581Z,1172.00
2018-08-06T12:20:39.591Z,1172.00
2018-08-06T12:21:39.620Z,1172.00
2018-08-06T12:22:39.650Z,1176.00
2018-08-06T12:23:39.673Z,1176.00
2018-08-06T12:24:39.700Z,1176.00
2018-08-06T12:26:00.790Z,1176.00